sensor_id;sensor_type;location;lat;lon;timestamp;temperature;humidity
38458;DHT22;24239;48.058;10.486;2022-11-24T00:01:27;5.20;99.90
38458;DHT22;24239;48.058;10.486;2022-11-24T00:03:57;5.20;99.90
38458;DHT22;24239;48.058;10.486;2022-11-24T00:06:27;5.10;99.90
38458;DHT22;24239;48.058;10.486;2022-11-24T00:08:54;4.90;99.90
38458;DHT22;24239;48.058;10.486;2022-11-24T00:11:22;4.90;99.90
38458;DHT22;24239;48.058;10.486;2022-11-24T00:13:49;5.10;99.90
38458;DHT22;24239;48.058;10.486;2022-11-24T00:16:23;5.10;99.90
38458;DHT22;24239;48.058;10.486;2022-11-24T00:18:54;5.00;99.90
38458;DHT22;24239;48.058;10.486;2022-11-24T00:21:23;5.00;99.90
38458;DHT22;24239;48.058;10.486;2022-11-24T00:23:52;4.80;99.90
38458;DHT22;24239;48.058;10.486;2022-11-24T00:26:27;4.80;99.90
38458;DHT22;24239;48.058;10.486;2022-11-24T00:28:59;4.90;99.90
38458;DHT22;24239;48.058;10.486;2022-11-24T00:31:30;4.80;99.90
38458;DHT22;24239;48.058;10.486;2022-11-24T00:34:02;4.80;99.90
38458;DHT22;24239;48.058;10.486;2022-11-24T00:36:40;4.70;99.90
38458;DHT22;24239;48.058;10.486;2022-11-24T00:39:10;4.60;99.90
38458;DHT22;24239;48.058;10.486;2022-11-24T00:41:37;4.60;99.90
38458;DHT22;24239;48.058;10.486;2022-11-24T00:44:03;4.20;99.90
38458;DHT22;24239;48.058;10.486;2022-11-24T00:46:29;4.20;99.90
38458;DHT22;24239;48.058;10.486;2022-11-24T00:48:55;4.10;99.90
38458;DHT22;24239;48.058;10.486;2022-11-24T00:51:23;4.00;99.90
38458;DHT22;24239;48.058;10.486;2022-11-24T00:53:51;4.00;99.90
38458;DHT22;24239;48.058;10.486;2022-11-24T00:56:18;4.00;99.90
38458;DHT22;24239;48.058;10.486;2022-11-24T00:58:43;4.00;99.90
38458;DHT22;24239;48.058;10.486;2022-11-24T01:01:16;3.90;99.90
38458;DHT22;24239;48.058;10.486;2022-11-24T01:03:42;3.90;99.90
38458;DHT22;24239;48.058;10.486;2022-11-24T01:06:12;4.10;99.90
38458;DHT22;24239;48.058;10.486;2022-11-24T01:08:40;4.10;99.90
38458;DHT22;24239;48.058;10.486;2022-11-24T01:11:11;4.40;99.90
38458;DHT22;24239;48.058;10.486;2022-11-24T01:13:37;4.60;99.90
38458;DHT22;24239;48.058;10.486;2022-11-24T01:16:13;4.70;99.90
38458;DHT22;24239;48.058;10.486;2022-11-24T01:18:45;4.70;99.90
38458;DHT22;24239;48.058;10.486;2022-11-24T01:21:11;4.80;99.90
38458;DHT22;24239;48.058;10.486;2022-11-24T01:23:37;4.90;99.90
38458;DHT22;24239;48.058;10.486;2022-11-24T01:26:05;5.00;99.90
38458;DHT22;24239;48.058;10.486;2022-11-24T01:28:31;5.10;99.90
38458;DHT22;24239;48.058;10.486;2022-11-24T01:30:59;5.00;99.90
38458;DHT22;24239;48.058;10.486;2022-11-24T01:33:25;5.10;99.90
38458;DHT22;24239;48.058;10.486;2022-11-24T01:35:51;5.20;99.90
38458;DHT22;24239;48.058;10.486;2022-11-24T01:38:18;5.20;99.90
38458;DHT22;24239;48.058;10.486;2022-11-24T01:40:48;5.30;99.90
38458;DHT22;24239;48.058;10.486;2022-11-24T01:43:19;5.20;99.90
38458;DHT22;24239;48.058;10.486;2022-11-24T01:45:45;5.30;99.90
38458;DHT22;24239;48.058;10.486;2022-11-24T01:48:39;5.40;99.90
38458;DHT22;24239;48.058;10.486;2022-11-24T01:51:14;5.50;99.90
38458;DHT22;24239;48.058;10.486;2022-11-24T01:53:44;5.50;99.90
38458;DHT22;24239;48.058;10.486;2022-11-24T01:56:14;5.50;99.90
38458;DHT22;24239;48.058;10.486;2022-11-24T01:58:41;5.50;99.90
38458;DHT22;24239;48.058;10.486;2022-11-24T02:01:08;5.50;99.90
38458;DHT22;24239;48.058;10.486;2022-11-24T02:03:37;5.40;99.90
38458;DHT22;24239;48.058;10.486;2022-11-24T02:06:11;5.50;99.90
38458;DHT22;24239;48.058;10.486;2022-11-24T02:11:25;5.40;99.90
38458;DHT22;24239;48.058;10.486;2022-11-24T02:13:52;5.20;99.90
38458;DHT22;24239;48.058;10.486;2022-11-24T02:16:18;5.20;99.90
38458;DHT22;24239;48.058;10.486;2022-11-24T02:18:47;5.30;99.90
38458;DHT22;24239;48.058;10.486;2022-11-24T02:21:14;5.30;99.90
38458;DHT22;24239;48.058;10.486;2022-11-24T02:23:53;5.40;99.90
38458;DHT22;24239;48.058;10.486;2022-11-24T02:26:39;5.40;99.90
38458;DHT22;24239;48.058;10.486;2022-11-24T02:29:06;5.40;99.90
38458;DHT22;24239;48.058;10.486;2022-11-24T02:31:32;5.40;99.90
38458;DHT22;24239;48.058;10.486;2022-11-24T02:33:58;5.40;99.90
38458;DHT22;24239;48.058;10.486;2022-11-24T02:36:24;5.50;99.90
38458;DHT22;24239;48.058;10.486;2022-11-24T02:38:50;5.40;99.90
38458;DHT22;24239;48.058;10.486;2022-11-24T02:41:19;5.60;99.90
38458;DHT22;24239;48.058;10.486;2022-11-24T02:43:54;5.50;99.90
38458;DHT22;24239;48.058;10.486;2022-11-24T02:46:20;5.50;99.90
38458;DHT22;24239;48.058;10.486;2022-11-24T02:48:48;5.50;99.90
38458;DHT22;24239;48.058;10.486;2022-11-24T02:51:14;5.50;99.90
38458;DHT22;24239;48.058;10.486;2022-11-24T02:53:40;5.50;99.90
38458;DHT22;24239;48.058;10.486;2022-11-24T02:56:06;5.50;99.90
38458;DHT22;24239;48.058;10.486;2022-11-24T02:58:32;5.50;99.90
38458;DHT22;24239;48.058;10.486;2022-11-24T03:00:57;5.50;99.90
38458;DHT22;24239;48.058;10.486;2022-11-24T03:03:25;5.50;99.90
38458;DHT22;24239;48.058;10.486;2022-11-24T03:05:51;5.50;99.90
38458;DHT22;24239;48.058;10.486;2022-11-24T03:08:17;5.50;99.90
38458;DHT22;24239;48.058;10.486;2022-11-24T03:10:42;5.50;99.90
38458;DHT22;24239;48.058;10.486;2022-11-24T03:13:08;5.60;99.90
38458;DHT22;24239;48.058;10.486;2022-11-24T03:15:34;5.60;99.90
38458;DHT22;24239;48.058;10.486;2022-11-24T03:18:00;5.50;99.90
38458;DHT22;24239;48.058;10.486;2022-11-24T03:20:26;5.70;99.90
38458;DHT22;24239;48.058;10.486;2022-11-24T03:22:55;5.60;99.90
38458;DHT22;24239;48.058;10.486;2022-11-24T03:25:21;5.50;99.90
38458;DHT22;24239;48.058;10.486;2022-11-24T03:27:47;5.60;99.90
38458;DHT22;24239;48.058;10.486;2022-11-24T03:30:13;5.50;99.90
38458;DHT22;24239;48.058;10.486;2022-11-24T03:32:39;5.60;99.90
38458;DHT22;24239;48.058;10.486;2022-11-24T03:35:07;5.60;99.90
38458;DHT22;24239;48.058;10.486;2022-11-24T03:37:35;5.60;99.90
38458;DHT22;24239;48.058;10.486;2022-11-24T03:40:04;5.70;99.90
38458;DHT22;24239;48.058;10.486;2022-11-24T03:42:33;5.60;99.90
38458;DHT22;24239;48.058;10.486;2022-11-24T03:44:59;5.50;99.90
38458;DHT22;24239;48.058;10.486;2022-11-24T03:47:25;5.50;99.90
38458;DHT22;24239;48.058;10.486;2022-11-24T03:49:51;5.60;99.90
38458;DHT22;24239;48.058;10.486;2022-11-24T03:52:16;5.70;99.90
38458;DHT22;24239;48.058;10.486;2022-11-24T03:54:42;5.50;99.90
38458;DHT22;24239;48.058;10.486;2022-11-24T03:57:08;5.60;99.90
38458;DHT22;24239;48.058;10.486;2022-11-24T03:59:34;5.70;99.90
38458;DHT22;24239;48.058;10.486;2022-11-24T04:02:00;5.60;99.90
38458;DHT22;24239;48.058;10.486;2022-11-24T04:04:29;5.70;99.90
38458;DHT22;24239;48.058;10.486;2022-11-24T04:06:54;5.70;99.90
38458;DHT22;24239;48.058;10.486;2022-11-24T04:09:20;5.60;99.90
38458;DHT22;24239;48.058;10.486;2022-11-24T04:11:46;5.60;99.90
38458;DHT22;24239;48.058;10.486;2022-11-24T04:14:30;5.60;99.90
38458;DHT22;24239;48.058;10.486;2022-11-24T04:16:56;5.40;99.90
38458;DHT22;24239;48.058;10.486;2022-11-24T04:19:22;5.30;99.90
38458;DHT22;24239;48.058;10.486;2022-11-24T04:21:50;5.20;99.90
38458;DHT22;24239;48.058;10.486;2022-11-24T04:24:16;5.20;99.90
38458;DHT22;24239;48.058;10.486;2022-11-24T04:26:44;5.20;99.90
38458;DHT22;24239;48.058;10.486;2022-11-24T04:29:13;5.20;99.90
38458;DHT22;24239;48.058;10.486;2022-11-24T04:31:39;5.20;99.90
38458;DHT22;24239;48.058;10.486;2022-11-24T04:34:05;5.20;99.90
38458;DHT22;24239;48.058;10.486;2022-11-24T04:36:30;5.30;99.90
38458;DHT22;24239;48.058;10.486;2022-11-24T04:38:59;5.30;99.90
38458;DHT22;24239;48.058;10.486;2022-11-24T04:41:25;5.30;99.90
38458;DHT22;24239;48.058;10.486;2022-11-24T04:43:51;5.30;99.90
38458;DHT22;24239;48.058;10.486;2022-11-24T04:46:17;5.30;99.90
38458;DHT22;24239;48.058;10.486;2022-11-24T04:48:43;5.20;99.90
38458;DHT22;24239;48.058;10.486;2022-11-24T04:51:09;5.30;99.90
38458;DHT22;24239;48.058;10.486;2022-11-24T04:53:36;5.10;99.90
38458;DHT22;24239;48.058;10.486;2022-11-24T04:56:05;5.20;99.90
38458;DHT22;24239;48.058;10.486;2022-11-24T04:58:31;5.00;99.90
38458;DHT22;24239;48.058;10.486;2022-11-24T05:00:57;5.10;99.90
38458;DHT22;24239;48.058;10.486;2022-11-24T05:03:23;4.90;99.90
38458;DHT22;24239;48.058;10.486;2022-11-24T05:05:48;5.00;99.90
38458;DHT22;24239;48.058;10.486;2022-11-24T05:08:14;4.90;99.90
38458;DHT22;24239;48.058;10.486;2022-11-24T05:10:40;4.80;99.90
38458;DHT22;24239;48.058;10.486;2022-11-24T05:13:11;4.80;99.90
38458;DHT22;24239;48.058;10.486;2022-11-24T05:15:38;4.80;99.90
38458;DHT22;24239;48.058;10.486;2022-11-24T05:18:05;4.90;99.90
38458;DHT22;24239;48.058;10.486;2022-11-24T05:20:31;4.80;99.90
38458;DHT22;24239;48.058;10.486;2022-11-24T05:23:02;4.70;99.90
38458;DHT22;24239;48.058;10.486;2022-11-24T05:25:28;4.60;99.90
38458;DHT22;24239;48.058;10.486;2022-11-24T05:27:54;4.70;99.90
38458;DHT22;24239;48.058;10.486;2022-11-24T05:30:20;4.60;99.90
38458;DHT22;24239;48.058;10.486;2022-11-24T05:32:45;4.60;99.90
38458;DHT22;24239;48.058;10.486;2022-11-24T05:35:11;4.60;99.90
38458;DHT22;24239;48.058;10.486;2022-11-24T05:37:38;4.50;99.90
38458;DHT22;24239;48.058;10.486;2022-11-24T05:40:07;4.80;99.90
38458;DHT22;24239;48.058;10.486;2022-11-24T05:42:33;4.60;99.90
38458;DHT22;24239;48.058;10.486;2022-11-24T05:45:18;4.50;99.90
38458;DHT22;24239;48.058;10.486;2022-11-24T05:47:46;4.50;99.90
38458;DHT22;24239;48.058;10.486;2022-11-24T05:50:13;4.40;99.90
38458;DHT22;24239;48.058;10.486;2022-11-24T05:52:39;4.30;99.90
38458;DHT22;24239;48.058;10.486;2022-11-24T05:55:06;4.20;99.90
38458;DHT22;24239;48.058;10.486;2022-11-24T05:57:33;4.00;99.90
38458;DHT22;24239;48.058;10.486;2022-11-24T05:59:59;4.10;99.90
38458;DHT22;24239;48.058;10.486;2022-11-24T06:02:25;4.10;99.90
38458;DHT22;24239;48.058;10.486;2022-11-24T06:04:51;4.10;99.90
38458;DHT22;24239;48.058;10.486;2022-11-24T06:07:17;4.10;99.90
38458;DHT22;24239;48.058;10.486;2022-11-24T06:09:43;4.20;99.90
38458;DHT22;24239;48.058;10.486;2022-11-24T06:12:12;4.20;99.90
38458;DHT22;24239;48.058;10.486;2022-11-24T06:14:38;4.30;99.90
38458;DHT22;24239;48.058;10.486;2022-11-24T06:17:04;4.10;99.90
38458;DHT22;24239;48.058;10.486;2022-11-24T06:19:31;4.40;99.90
38458;DHT22;24239;48.058;10.486;2022-11-24T06:21:57;4.30;99.90
38458;DHT22;24239;48.058;10.486;2022-11-24T06:24:23;4.50;99.90
38458;DHT22;24239;48.058;10.486;2022-11-24T06:26:48;4.50;99.90
38458;DHT22;24239;48.058;10.486;2022-11-24T06:29:14;4.60;99.90
38458;DHT22;24239;48.058;10.486;2022-11-24T06:31:40;4.60;99.90
38458;DHT22;24239;48.058;10.486;2022-11-24T06:34:08;4.60;99.90
38458;DHT22;24239;48.058;10.486;2022-11-24T06:36:39;4.40;99.90
38458;DHT22;24239;48.058;10.486;2022-11-24T06:39:05;4.40;99.90
38458;DHT22;24239;48.058;10.486;2022-11-24T06:41:31;4.40;99.90
38458;DHT22;24239;48.058;10.486;2022-11-24T06:43:57;4.40;99.90
38458;DHT22;24239;48.058;10.486;2022-11-24T06:46:23;4.50;99.90
38458;DHT22;24239;48.058;10.486;2022-11-24T06:48:52;4.60;99.90
38458;DHT22;24239;48.058;10.486;2022-11-24T06:51:18;4.60;99.90
38458;DHT22;24239;48.058;10.486;2022-11-24T06:53:47;4.60;99.90
38458;DHT22;24239;48.058;10.486;2022-11-24T06:56:14;4.60;99.90
38458;DHT22;24239;48.058;10.486;2022-11-24T06:58:44;4.70;99.90
38458;DHT22;24239;48.058;10.486;2022-11-24T07:01:22;4.80;99.90
38458;DHT22;24239;48.058;10.486;2022-11-24T07:03:48;4.80;99.90
38458;DHT22;24239;48.058;10.486;2022-11-24T07:06:15;4.90;99.90
38458;DHT22;24239;48.058;10.486;2022-11-24T07:08:42;5.00;99.90
38458;DHT22;24239;48.058;10.486;2022-11-24T07:11:10;5.00;99.90
38458;DHT22;24239;48.058;10.486;2022-11-24T07:13:36;5.20;99.90
38458;DHT22;24239;48.058;10.486;2022-11-24T07:16:17;5.20;99.90
38458;DHT22;24239;48.058;10.486;2022-11-24T07:18:43;5.30;99.90
38458;DHT22;24239;48.058;10.486;2022-11-24T07:21:10;5.30;99.90
38458;DHT22;24239;48.058;10.486;2022-11-24T07:23:36;5.30;99.90
38458;DHT22;24239;48.058;10.486;2022-11-24T07:26:03;5.30;99.90
38458;DHT22;24239;48.058;10.486;2022-11-24T07:28:30;5.30;99.90
38458;DHT22;24239;48.058;10.486;2022-11-24T07:30:58;5.40;99.90
38458;DHT22;24239;48.058;10.486;2022-11-24T07:33:24;5.40;99.90
38458;DHT22;24239;48.058;10.486;2022-11-24T07:35:52;5.40;99.90
38458;DHT22;24239;48.058;10.486;2022-11-24T07:38:19;5.30;99.90
38458;DHT22;24239;48.058;10.486;2022-11-24T07:40:45;5.30;99.90
38458;DHT22;24239;48.058;10.486;2022-11-24T07:43:11;5.50;99.90
38458;DHT22;24239;48.058;10.486;2022-11-24T07:45:37;5.50;99.90
38458;DHT22;24239;48.058;10.486;2022-11-24T07:48:03;5.60;99.90
38458;DHT22;24239;48.058;10.486;2022-11-24T07:50:29;5.60;99.90
38458;DHT22;24239;48.058;10.486;2022-11-24T07:52:55;5.70;99.90
38458;DHT22;24239;48.058;10.486;2022-11-24T07:55:25;5.70;99.90
38458;DHT22;24239;48.058;10.486;2022-11-24T07:57:53;5.70;99.90
38458;DHT22;24239;48.058;10.486;2022-11-24T08:00:19;5.80;99.90
38458;DHT22;24239;48.058;10.486;2022-11-24T08:02:46;5.80;99.90
38458;DHT22;24239;48.058;10.486;2022-11-24T08:05:11;5.90;99.90
38458;DHT22;24239;48.058;10.486;2022-11-24T08:07:37;6.00;99.90
38458;DHT22;24239;48.058;10.486;2022-11-24T08:10:04;6.20;99.90
38458;DHT22;24239;48.058;10.486;2022-11-24T08:12:30;6.20;99.90
38458;DHT22;24239;48.058;10.486;2022-11-24T08:14:56;6.40;99.90
38458;DHT22;24239;48.058;10.486;2022-11-24T08:17:22;6.40;99.90
38458;DHT22;24239;48.058;10.486;2022-11-24T08:19:48;6.50;99.90
38458;DHT22;24239;48.058;10.486;2022-11-24T08:22:13;6.60;99.90
38458;DHT22;24239;48.058;10.486;2022-11-24T08:24:39;6.60;99.90
38458;DHT22;24239;48.058;10.486;2022-11-24T08:27:11;6.70;99.90
38458;DHT22;24239;48.058;10.486;2022-11-24T08:29:37;6.80;99.90
38458;DHT22;24239;48.058;10.486;2022-11-24T08:32:03;6.80;99.90
38458;DHT22;24239;48.058;10.486;2022-11-24T08:34:29;7.00;99.90
38458;DHT22;24239;48.058;10.486;2022-11-24T08:36:55;7.10;99.90
38458;DHT22;24239;48.058;10.486;2022-11-24T08:39:20;7.30;99.90
38458;DHT22;24239;48.058;10.486;2022-11-24T08:41:46;7.40;99.90
38458;DHT22;24239;48.058;10.486;2022-11-24T08:44:12;7.40;99.90
38458;DHT22;24239;48.058;10.486;2022-11-24T08:46:40;7.30;99.90
38458;DHT22;24239;48.058;10.486;2022-11-24T08:49:08;7.10;99.90
38458;DHT22;24239;48.058;10.486;2022-11-24T08:51:35;7.10;99.90
38458;DHT22;24239;48.058;10.486;2022-11-24T08:54:01;7.00;99.90
38458;DHT22;24239;48.058;10.486;2022-11-24T08:56:29;6.90;99.90
38458;DHT22;24239;48.058;10.486;2022-11-24T08:58:56;6.90;99.90
38458;DHT22;24239;48.058;10.486;2022-11-24T09:01:22;6.80;99.90
38458;DHT22;24239;48.058;10.486;2022-11-24T09:03:49;6.70;99.90
38458;DHT22;24239;48.058;10.486;2022-11-24T09:06:17;6.70;99.90
38458;DHT22;24239;48.058;10.486;2022-11-24T09:08:43;6.50;99.90
38458;DHT22;24239;48.058;10.486;2022-11-24T09:11:11;6.50;99.90
38458;DHT22;24239;48.058;10.486;2022-11-24T09:13:38;6.50;99.90
38458;DHT22;24239;48.058;10.486;2022-11-24T09:16:09;6.50;99.90
38458;DHT22;24239;48.058;10.486;2022-11-24T09:18:35;6.30;99.90
38458;DHT22;24239;48.058;10.486;2022-11-24T09:23:38;6.30;99.90
38458;DHT22;24239;48.058;10.486;2022-11-24T09:26:06;6.20;99.90
38458;DHT22;24239;48.058;10.486;2022-11-24T09:28:32;6.20;99.90
38458;DHT22;24239;48.058;10.486;2022-11-24T09:31:02;6.20;99.90
38458;DHT22;24239;48.058;10.486;2022-11-24T09:33:29;6.30;99.90
38458;DHT22;24239;48.058;10.486;2022-11-24T09:35:55;6.20;99.90
38458;DHT22;24239;48.058;10.486;2022-11-24T09:38:21;6.30;99.90
38458;DHT22;24239;48.058;10.486;2022-11-24T09:40:48;6.30;99.90
38458;DHT22;24239;48.058;10.486;2022-11-24T09:43:26;6.40;99.90
38458;DHT22;24239;48.058;10.486;2022-11-24T09:46:18;6.40;99.90
38458;DHT22;24239;48.058;10.486;2022-11-24T09:48:51;6.30;99.90
38458;DHT22;24239;48.058;10.486;2022-11-24T09:51:23;6.30;99.90
38458;DHT22;24239;48.058;10.486;2022-11-24T09:54:03;6.30;99.90
38458;DHT22;24239;48.058;10.486;2022-11-24T09:56:33;6.20;99.90
38458;DHT22;24239;48.058;10.486;2022-11-24T09:59:22;6.30;99.90
38458;DHT22;24239;48.058;10.486;2022-11-24T10:01:50;6.20;99.90
38458;DHT22;24239;48.058;10.486;2022-11-24T10:04:20;6.20;99.90
38458;DHT22;24239;48.058;10.486;2022-11-24T10:14:49;5.80;99.90
38458;DHT22;24239;48.058;10.486;2022-11-24T10:25:59;5.80;99.90
38458;DHT22;24239;48.058;10.486;2022-11-24T10:28:50;5.90;99.90
38458;DHT22;24239;48.058;10.486;2022-11-24T10:31:33;6.00;99.90
38458;DHT22;24239;48.058;10.486;2022-11-24T10:34:12;5.90;99.90
38458;DHT22;24239;48.058;10.486;2022-11-24T10:36:54;6.00;99.90
38458;DHT22;24239;48.058;10.486;2022-11-24T10:42:19;6.20;99.90
38458;DHT22;24239;48.058;10.486;2022-11-24T10:45:16;6.20;99.90
38458;DHT22;24239;48.058;10.486;2022-11-24T10:47:43;6.30;99.90
38458;DHT22;24239;48.058;10.486;2022-11-24T10:50:25;6.30;99.90
38458;DHT22;24239;48.058;10.486;2022-11-24T10:55:21;6.10;99.90
38458;DHT22;24239;48.058;10.486;2022-11-24T10:57:49;6.20;99.90
38458;DHT22;24239;48.058;10.486;2022-11-24T11:02:45;6.30;99.90
38458;DHT22;24239;48.058;10.486;2022-11-24T11:08:27;6.40;99.90
38458;DHT22;24239;48.058;10.486;2022-11-24T11:13:47;6.60;99.90
38458;DHT22;24239;48.058;10.486;2022-11-24T11:18:59;6.70;99.90
38458;DHT22;24239;48.058;10.486;2022-11-24T11:21:36;7.00;99.90
38458;DHT22;24239;48.058;10.486;2022-11-24T11:24:17;7.00;99.90
38458;DHT22;24239;48.058;10.486;2022-11-24T11:26:43;7.10;99.90
38458;DHT22;24239;48.058;10.486;2022-11-24T11:29:14;7.30;99.90
38458;DHT22;24239;48.058;10.486;2022-11-24T11:31:41;7.40;99.90
38458;DHT22;24239;48.058;10.486;2022-11-24T11:34:20;7.60;99.90
38458;DHT22;24239;48.058;10.486;2022-11-24T11:36:51;7.80;99.90
38458;DHT22;24239;48.058;10.486;2022-11-24T11:39:22;7.80;99.90
38458;DHT22;24239;48.058;10.486;2022-11-24T11:41:51;7.70;99.90
38458;DHT22;24239;48.058;10.486;2022-11-24T11:44:37;7.70;99.90
38458;DHT22;24239;48.058;10.486;2022-11-24T11:47:14;7.70;99.90
38458;DHT22;24239;48.058;10.486;2022-11-24T11:49:43;7.50;99.90
38458;DHT22;24239;48.058;10.486;2022-11-24T12:00:29;7.40;99.90
38458;DHT22;24239;48.058;10.486;2022-11-24T12:06:11;7.60;99.90
38458;DHT22;24239;48.058;10.486;2022-11-24T12:11:30;7.80;99.90
38458;DHT22;24239;48.058;10.486;2022-11-24T12:25:41;8.00;99.90
38458;DHT22;24239;48.058;10.486;2022-11-24T12:34:27;8.20;99.90
38458;DHT22;24239;48.058;10.486;2022-11-24T12:37:23;8.20;99.90
38458;DHT22;24239;48.058;10.486;2022-11-24T12:40:16;8.00;99.90
38458;DHT22;24239;48.058;10.486;2022-11-24T12:45:58;7.80;99.90
38458;DHT22;24239;48.058;10.486;2022-11-24T12:51:19;8.40;99.90
38458;DHT22;24239;48.058;10.486;2022-11-24T12:53:47;8.70;99.90
38458;DHT22;24239;48.058;10.486;2022-11-24T12:56:16;9.00;99.90
38458;DHT22;24239;48.058;10.486;2022-11-24T12:59:10;9.00;99.90
38458;DHT22;24239;48.058;10.486;2022-11-24T13:13:02;7.50;99.90
38458;DHT22;24239;48.058;10.486;2022-11-24T13:15:29;7.30;99.90
38458;DHT22;24239;48.058;10.486;2022-11-24T13:17:56;7.20;99.90
38458;DHT22;24239;48.058;10.486;2022-11-24T13:20:29;7.00;99.90
38458;DHT22;24239;48.058;10.486;2022-11-24T13:23:02;7.00;99.90
38458;DHT22;24239;48.058;10.486;2022-11-24T13:25:32;7.00;99.90
38458;DHT22;24239;48.058;10.486;2022-11-24T13:28:00;6.80;99.90
38458;DHT22;24239;48.058;10.486;2022-11-24T13:32:59;6.70;99.90
38458;DHT22;24239;48.058;10.486;2022-11-24T13:35:26;6.60;99.90
38458;DHT22;24239;48.058;10.486;2022-11-24T13:37:52;6.60;99.90
38458;DHT22;24239;48.058;10.486;2022-11-24T13:40:39;6.60;99.90
38458;DHT22;24239;48.058;10.486;2022-11-24T13:53:41;6.40;99.90
38458;DHT22;24239;48.058;10.486;2022-11-24T14:08:54;6.30;99.90
38458;DHT22;24239;48.058;10.486;2022-11-24T14:11:24;6.30;99.90
38458;DHT22;24239;48.058;10.486;2022-11-24T14:13:51;6.40;99.90
38458;DHT22;24239;48.058;10.486;2022-11-24T14:16:20;6.50;99.90
38458;DHT22;24239;48.058;10.486;2022-11-24T14:18:47;6.60;99.90
38458;DHT22;24239;48.058;10.486;2022-11-24T14:21:37;6.50;99.90
38458;DHT22;24239;48.058;10.486;2022-11-24T14:24:24;6.50;99.90
38458;DHT22;24239;48.058;10.486;2022-11-24T14:26:50;6.60;99.90
38458;DHT22;24239;48.058;10.486;2022-11-24T14:29:23;6.60;99.90
38458;DHT22;24239;48.058;10.486;2022-11-24T14:31:58;6.70;99.90
38458;DHT22;24239;48.058;10.486;2022-11-24T14:34:26;6.60;99.90
38458;DHT22;24239;48.058;10.486;2022-11-24T14:36:53;6.70;99.90
38458;DHT22;24239;48.058;10.486;2022-11-24T14:39:21;6.60;99.90
38458;DHT22;24239;48.058;10.486;2022-11-24T14:42:03;6.60;99.90
38458;DHT22;24239;48.058;10.486;2022-11-24T14:44:51;6.50;99.90
38458;DHT22;24239;48.058;10.486;2022-11-24T14:47:31;6.50;99.90
38458;DHT22;24239;48.058;10.486;2022-11-24T14:50:11;6.40;99.90
38458;DHT22;24239;48.058;10.486;2022-11-24T14:52:56;6.50;99.90
38458;DHT22;24239;48.058;10.486;2022-11-24T14:55:30;6.40;99.90
38458;DHT22;24239;48.058;10.486;2022-11-24T14:57:57;6.40;99.90
38458;DHT22;24239;48.058;10.486;2022-11-24T15:00:31;6.30;99.90
38458;DHT22;24239;48.058;10.486;2022-11-24T15:05:58;6.20;99.90
38458;DHT22;24239;48.058;10.486;2022-11-24T15:08:26;6.20;99.90
38458;DHT22;24239;48.058;10.486;2022-11-24T15:10:59;6.20;99.90
38458;DHT22;24239;48.058;10.486;2022-11-24T15:13:25;6.10;99.90
38458;DHT22;24239;48.058;10.486;2022-11-24T15:16:02;6.10;99.90
38458;DHT22;24239;48.058;10.486;2022-11-24T15:18:43;6.00;99.90
38458;DHT22;24239;48.058;10.486;2022-11-24T15:21:10;5.90;99.90
38458;DHT22;24239;48.058;10.486;2022-11-24T15:23:37;6.00;99.90
38458;DHT22;24239;48.058;10.486;2022-11-24T15:28:33;6.10;99.90
38458;DHT22;24239;48.058;10.486;2022-11-24T15:31:00;6.20;99.90
38458;DHT22;24239;48.058;10.486;2022-11-24T15:33:27;6.20;99.90
38458;DHT22;24239;48.058;10.486;2022-11-24T15:35:53;6.20;99.90
38458;DHT22;24239;48.058;10.486;2022-11-24T15:38:19;6.10;99.90
38458;DHT22;24239;48.058;10.486;2022-11-24T15:40:47;6.10;99.90
38458;DHT22;24239;48.058;10.486;2022-11-24T15:43:33;6.20;99.90
38458;DHT22;24239;48.058;10.486;2022-11-24T15:46:00;6.20;99.90
38458;DHT22;24239;48.058;10.486;2022-11-24T15:48:27;6.10;99.90
38458;DHT22;24239;48.058;10.486;2022-11-24T15:50:53;6.20;99.90
38458;DHT22;24239;48.058;10.486;2022-11-24T15:55:56;6.00;99.90
38458;DHT22;24239;48.058;10.486;2022-11-24T15:58:23;6.10;99.90
38458;DHT22;24239;48.058;10.486;2022-11-24T16:00:49;6.00;99.90
38458;DHT22;24239;48.058;10.486;2022-11-24T16:03:20;6.00;99.90
38458;DHT22;24239;48.058;10.486;2022-11-24T16:05:47;6.00;99.90
38458;DHT22;24239;48.058;10.486;2022-11-24T16:08:14;5.90;99.90
38458;DHT22;24239;48.058;10.486;2022-11-24T16:10:46;5.80;99.90
38458;DHT22;24239;48.058;10.486;2022-11-24T16:13:12;5.70;99.90
38458;DHT22;24239;48.058;10.486;2022-11-24T16:15:40;5.70;99.90
38458;DHT22;24239;48.058;10.486;2022-11-24T16:18:06;5.60;99.90
38458;DHT22;24239;48.058;10.486;2022-11-24T16:20:32;5.60;99.90
38458;DHT22;24239;48.058;10.486;2022-11-24T16:23:02;5.70;99.90
38458;DHT22;24239;48.058;10.486;2022-11-24T16:25:28;5.70;99.90
38458;DHT22;24239;48.058;10.486;2022-11-24T16:27:54;5.70;99.90
38458;DHT22;24239;48.058;10.486;2022-11-24T16:30:20;5.80;99.90
38458;DHT22;24239;48.058;10.486;2022-11-24T16:32:46;5.80;99.90
38458;DHT22;24239;48.058;10.486;2022-11-24T16:35:12;5.80;99.90
38458;DHT22;24239;48.058;10.486;2022-11-24T16:37:38;5.60;99.90
38458;DHT22;24239;48.058;10.486;2022-11-24T16:40:04;5.60;99.90
38458;DHT22;24239;48.058;10.486;2022-11-24T16:42:30;5.50;99.90
38458;DHT22;24239;48.058;10.486;2022-11-24T16:44:58;5.50;99.90
38458;DHT22;24239;48.058;10.486;2022-11-24T16:47:24;5.50;99.90
38458;DHT22;24239;48.058;10.486;2022-11-24T16:49:58;5.80;99.90
38458;DHT22;24239;48.058;10.486;2022-11-24T16:52:24;5.50;99.90
38458;DHT22;24239;48.058;10.486;2022-11-24T16:54:50;5.50;99.90
38458;DHT22;24239;48.058;10.486;2022-11-24T16:57:16;5.40;99.90
38458;DHT22;24239;48.058;10.486;2022-11-24T16:59:42;5.50;99.90
38458;DHT22;24239;48.058;10.486;2022-11-24T17:02:11;5.40;99.90
38458;DHT22;24239;48.058;10.486;2022-11-24T17:04:37;5.40;99.90
38458;DHT22;24239;48.058;10.486;2022-11-24T17:07:03;5.30;99.90
38458;DHT22;24239;48.058;10.486;2022-11-24T17:09:29;5.40;99.90
38458;DHT22;24239;48.058;10.486;2022-11-24T17:11:55;5.40;99.90
38458;DHT22;24239;48.058;10.486;2022-11-24T17:14:21;5.40;99.90
38458;DHT22;24239;48.058;10.486;2022-11-24T17:16:49;5.30;99.90
38458;DHT22;24239;48.058;10.486;2022-11-24T17:19:15;5.40;99.90
38458;DHT22;24239;48.058;10.486;2022-11-24T17:21:41;5.30;99.90
38458;DHT22;24239;48.058;10.486;2022-11-24T17:24:07;5.20;99.90
38458;DHT22;24239;48.058;10.486;2022-11-24T17:26:39;5.20;99.90
38458;DHT22;24239;48.058;10.486;2022-11-24T17:29:05;5.00;99.90
38458;DHT22;24239;48.058;10.486;2022-11-24T17:31:32;5.10;99.90
38458;DHT22;24239;48.058;10.486;2022-11-24T17:34:02;5.00;99.90
38458;DHT22;24239;48.058;10.486;2022-11-24T17:36:29;4.90;99.90
38458;DHT22;24239;48.058;10.486;2022-11-24T17:38:58;4.80;99.90
38458;DHT22;24239;48.058;10.486;2022-11-24T17:41:24;4.70;99.90
38458;DHT22;24239;48.058;10.486;2022-11-24T17:43:53;4.70;99.90